sensor_id;sensor_type;location;lat;lon;timestamp;pressure;altitude;pressure_sealevel;temperature;humidity
7532;BME280;3807;49.030;8.714;2023-04-03T00:00:29;100168.47;;;9.26;61.99
7532;BME280;3807;49.030;8.714;2023-04-03T00:02:55;100171.78;;;9.35;61.43
7532;BME280;3807;49.030;8.714;2023-04-03T00:05:20;100172.72;;;9.27;62.07
7532;BME280;3807;49.030;8.714;2023-04-03T00:07:46;100175.94;;;9.37;61.18
7532;BME280;3807;49.030;8.714;2023-04-03T00:10:11;100171.06;;;9.25;62.12
7532;BME280;3807;49.030;8.714;2023-04-03T00:12:37;100163.47;;;9.22;60.41
7532;BME280;3807;49.030;8.714;2023-04-03T00:15:03;100165.22;;;9.17;62.18
7532;BME280;3807;49.030;8.714;2023-04-03T00:17:28;100166.13;;;9.14;61.77
7532;BME280;3807;49.030;8.714;2023-04-03T00:19:54;100160.13;;;9.18;61.49
7532;BME280;3807;49.030;8.714;2023-04-03T00:22:19;100163.19;;;8.80;59.40
7532;BME280;3807;49.030;8.714;2023-04-03T00:24:45;100155.31;;;8.98;62.02
7532;BME280;3807;49.030;8.714;2023-04-03T00:27:10;100157.78;;;9.03;60.04
7532;BME280;3807;49.030;8.714;2023-04-03T00:29:36;100162.84;;;9.07;61.99
7532;BME280;3807;49.030;8.714;2023-04-03T00:32:01;100156.72;;;9.19;60.56
7532;BME280;3807;49.030;8.714;2023-04-03T00:34:26;100153.34;;;9.19;61.67
7532;BME280;3807;49.030;8.714;2023-04-03T00:36:52;100157.06;;;8.95;61.07
7532;BME280;3807;49.030;8.714;2023-04-03T00:39:17;100156.91;;;9.07;61.20
7532;BME280;3807;49.030;8.714;2023-04-03T00:41:42;100151.91;;;9.01;61.29
7532;BME280;3807;49.030;8.714;2023-04-03T00:46:57;100155.13;;;9.12;61.39
7532;BME280;3807;49.030;8.714;2023-04-03T00:49:23;100154.44;;;9.01;62.01
7532;BME280;3807;49.030;8.714;2023-04-03T00:51:48;100159.50;;;9.04;60.67
7532;BME280;3807;49.030;8.714;2023-04-03T00:54:14;100153.56;;;9.02;60.74
7532;BME280;3807;49.030;8.714;2023-04-03T00:56:40;100153.66;;;8.96;60.46
7532;BME280;3807;49.030;8.714;2023-04-03T00:59:12;100160.03;;;8.61;61.45
7532;BME280;3807;49.030;8.714;2023-04-03T01:01:40;100150.62;;;8.68;61.13
7532;BME280;3807;49.030;8.714;2023-04-03T01:06:52;100155.59;;;8.77;61.49
7532;BME280;3807;49.030;8.714;2023-04-03T01:09:17;100162.34;;;8.78;60.59
7532;BME280;3807;49.030;8.714;2023-04-03T01:11:42;100156.78;;;8.50;58.74
7532;BME280;3807;49.030;8.714;2023-04-03T01:14:07;100149.88;;;8.63;61.37
7532;BME280;3807;49.030;8.714;2023-04-03T01:16:33;100153.16;;;8.68;61.45
7532;BME280;3807;49.030;8.714;2023-04-03T01:18:59;100152.22;;;8.76;61.12
7532;BME280;3807;49.030;8.714;2023-04-03T01:21:56;100159.06;;;8.73;60.59
7532;BME280;3807;49.030;8.714;2023-04-03T01:24:32;100158.28;;;8.65;61.11
7532;BME280;3807;49.030;8.714;2023-04-03T01:27:00;100159.91;;;8.72;61.02
7532;BME280;3807;49.030;8.714;2023-04-03T01:29:26;100164.12;;;8.71;61.03
7532;BME280;3807;49.030;8.714;2023-04-03T01:31:59;100166.72;;;8.68;61.88
7532;BME280;3807;49.030;8.714;2023-04-03T01:34:26;100160.78;;;8.69;61.54
7532;BME280;3807;49.030;8.714;2023-04-03T01:36:52;100160.75;;;8.71;61.57
7532;BME280;3807;49.030;8.714;2023-04-03T01:39:17;100169.22;;;8.73;61.17
7532;BME280;3807;49.030;8.714;2023-04-03T01:41:43;100173.41;;;8.74;61.07
7532;BME280;3807;49.030;8.714;2023-04-03T01:44:09;100171.75;;;8.73;60.95
7532;BME280;3807;49.030;8.714;2023-04-03T01:46:34;100170.19;;;8.61;61.65
7532;BME280;3807;49.030;8.714;2023-04-03T01:49:00;100173.53;;;8.66;60.81
7532;BME280;3807;49.030;8.714;2023-04-03T01:51:26;100170.09;;;8.69;61.45
7532;BME280;3807;49.030;8.714;2023-04-03T01:53:51;100175.31;;;8.56;60.84
7532;BME280;3807;49.030;8.714;2023-04-03T01:56:17;100180.47;;;8.52;61.07
7532;BME280;3807;49.030;8.714;2023-04-03T01:58:42;100188.03;;;8.53;61.76
7532;BME280;3807;49.030;8.714;2023-04-03T02:01:07;100182.13;;;8.53;60.76
7532;BME280;3807;49.030;8.714;2023-04-03T02:03:33;100187.34;;;8.41;61.16
7532;BME280;3807;49.030;8.714;2023-04-03T02:06:00;100189.03;;;8.42;60.79
7532;BME280;3807;49.030;8.714;2023-04-03T02:08:25;100183.09;;;8.44;60.33
7532;BME280;3807;49.030;8.714;2023-04-03T02:10:51;100186.47;;;8.43;60.04
7532;BME280;3807;49.030;8.714;2023-04-03T02:13:17;100189.03;;;8.40;60.83
7532;BME280;3807;49.030;8.714;2023-04-03T02:15:43;100185.50;;;8.53;60.75
7532;BME280;3807;49.030;8.714;2023-04-03T02:18:08;100184.66;;;8.53;60.82
7532;BME280;3807;49.030;8.714;2023-04-03T02:20:33;100194.06;;;8.43;60.18
7532;BME280;3807;49.030;8.714;2023-04-03T02:22:59;100188.19;;;8.41;61.26
7532;BME280;3807;49.030;8.714;2023-04-03T02:25:25;100183.94;;;8.42;61.24
7532;BME280;3807;49.030;8.714;2023-04-03T02:27:50;100179.78;;;8.38;60.81
7532;BME280;3807;49.030;8.714;2023-04-03T02:30:15;100184.88;;;8.31;61.04
7532;BME280;3807;49.030;8.714;2023-04-03T02:32:42;100174.66;;;8.36;60.50
7532;BME280;3807;49.030;8.714;2023-04-03T02:35:08;100167.84;;;8.43;60.38
7532;BME280;3807;49.030;8.714;2023-04-03T02:37:33;100174.72;;;8.31;60.98
7532;BME280;3807;49.030;8.714;2023-04-03T02:39:59;100169.72;;;8.22;60.95
7532;BME280;3807;49.030;8.714;2023-04-03T02:42:25;100174.00;;;8.20;61.17
7532;BME280;3807;49.030;8.714;2023-04-03T02:44:50;100174.78;;;8.25;61.21
7532;BME280;3807;49.030;8.714;2023-04-03T02:47:15;100174.75;;;8.30;60.84
7532;BME280;3807;49.030;8.714;2023-04-03T02:49:41;100174.03;;;8.16;61.03
7532;BME280;3807;49.030;8.714;2023-04-03T02:52:08;100171.59;;;8.06;61.18
7532;BME280;3807;49.030;8.714;2023-04-03T02:54:34;100172.41;;;8.10;61.07
7532;BME280;3807;49.030;8.714;2023-04-03T02:57:00;100175.69;;;8.20;60.86
7532;BME280;3807;49.030;8.714;2023-04-03T02:59:25;100168.16;;;8.10;60.60
7532;BME280;3807;49.030;8.714;2023-04-03T03:01:50;100171.47;;;8.16;60.93
7532;BME280;3807;49.030;8.714;2023-04-03T03:04:16;100172.37;;;8.11;60.89
7532;BME280;3807;49.030;8.714;2023-04-03T03:06:41;100174.88;;;8.16;60.75
7532;BME280;3807;49.030;8.714;2023-04-03T03:09:06;100164.75;;;8.13;61.23
7532;BME280;3807;49.030;8.714;2023-04-03T03:11:32;100162.16;;;8.18;60.91
7532;BME280;3807;49.030;8.714;2023-04-03T03:13:57;100161.38;;;8.11;60.69
7532;BME280;3807;49.030;8.714;2023-04-03T03:16:22;100163.03;;;8.15;61.49
7532;BME280;3807;49.030;8.714;2023-04-03T03:18:48;100160.56;;;8.10;60.63
7532;BME280;3807;49.030;8.714;2023-04-03T03:21:13;100159.75;;;8.07;61.21
7532;BME280;3807;49.030;8.714;2023-04-03T03:23:39;100159.84;;;7.95;61.01
7532;BME280;3807;49.030;8.714;2023-04-03T03:26:07;100164.09;;;7.93;61.73
7532;BME280;3807;49.030;8.714;2023-04-03T03:28:33;100162.47;;;7.88;61.66
7532;BME280;3807;49.030;8.714;2023-04-03T03:30:59;100168.44;;;7.81;60.89
7532;BME280;3807;49.030;8.714;2023-04-03T03:33:25;100157.62;;;7.58;60.46
7532;BME280;3807;49.030;8.714;2023-04-03T03:35:52;100170.94;;;7.86;61.60
7532;BME280;3807;49.030;8.714;2023-04-03T03:38:18;100167.72;;;7.67;60.60
7532;BME280;3807;49.030;8.714;2023-04-03T03:40:43;100169.28;;;7.82;61.43
7532;BME280;3807;49.030;8.714;2023-04-03T03:43:09;100169.37;;;7.71;60.78
7532;BME280;3807;49.030;8.714;2023-04-03T03:45:34;100167.78;;;7.56;60.67
7532;BME280;3807;49.030;8.714;2023-04-03T03:48:00;100166.78;;;7.76;61.46
7532;BME280;3807;49.030;8.714;2023-04-03T03:50:26;100165.13;;;7.75;61.45
7532;BME280;3807;49.030;8.714;2023-04-03T03:52:51;100159.16;;;7.79;61.19
7532;BME280;3807;49.030;8.714;2023-04-03T03:55:16;100162.56;;;7.76;60.95
7532;BME280;3807;49.030;8.714;2023-04-03T03:57:42;100167.62;;;7.78;60.84
7532;BME280;3807;49.030;8.714;2023-04-03T04:00:08;100160.88;;;7.74;60.95
7532;BME280;3807;49.030;8.714;2023-04-03T04:02:33;100166.94;;;7.53;59.90
7532;BME280;3807;49.030;8.714;2023-04-03T04:04:59;100166.16;;;7.48;61.59
7532;BME280;3807;49.030;8.714;2023-04-03T04:07:24;100171.16;;;7.58;61.63
7532;BME280;3807;49.030;8.714;2023-04-03T04:09:53;100166.72;;;7.85;60.75
7532;BME280;3807;49.030;8.714;2023-04-03T04:12:18;100172.94;;;7.47;60.90
7532;BME280;3807;49.030;8.714;2023-04-03T04:14:43;100172.00;;;7.57;61.41
7532;BME280;3807;49.030;8.714;2023-04-03T04:17:11;100170.94;;;7.86;60.52
7532;BME280;3807;49.030;8.714;2023-04-03T04:19:37;100167.78;;;7.58;60.82
7532;BME280;3807;49.030;8.714;2023-04-03T04:22:03;100160.84;;;7.77;60.88
7532;BME280;3807;49.030;8.714;2023-04-03T04:24:28;100169.47;;;7.60;61.29
7532;BME280;3807;49.030;8.714;2023-04-03T04:26:54;100175.28;;;7.70;61.11
7532;BME280;3807;49.030;8.714;2023-04-03T04:29:19;100161.09;;;7.45;61.61
7532;BME280;3807;49.030;8.714;2023-04-03T04:31:44;100169.41;;;7.65;60.79
7532;BME280;3807;49.030;8.714;2023-04-03T04:34:10;100174.47;;;7.63;60.81
7532;BME280;3807;49.030;8.714;2023-04-03T04:36:35;100160.09;;;7.67;60.20
7532;BME280;3807;49.030;8.714;2023-04-03T04:39:01;100167.69;;;7.69;61.27
7532;BME280;3807;49.030;8.714;2023-04-03T04:41:26;100177.06;;;7.59;60.82
7532;BME280;3807;49.030;8.714;2023-04-03T04:43:52;100177.09;;;7.53;61.04
7532;BME280;3807;49.030;8.714;2023-04-03T04:46:17;100176.44;;;7.25;60.66
7532;BME280;3807;49.030;8.714;2023-04-03T04:48:43;100180.84;;;6.92;61.22
7532;BME280;3807;49.030;8.714;2023-04-03T04:51:08;100180.88;;;6.87;61.77
7532;BME280;3807;49.030;8.714;2023-04-03T04:53:34;100183.28;;;7.10;61.83
7532;BME280;3807;49.030;8.714;2023-04-03T04:55:59;100179.06;;;7.12;61.51
7532;BME280;3807;49.030;8.714;2023-04-03T04:58:25;100186.69;;;7.08;62.04
7532;BME280;3807;49.030;8.714;2023-04-03T05:01:02;100192.72;;;6.78;62.64
7532;BME280;3807;49.030;8.714;2023-04-03T05:03:28;100194.31;;;6.97;61.69
7532;BME280;3807;49.030;8.714;2023-04-03T05:05:53;100198.66;;;6.77;62.70
7532;BME280;3807;49.030;8.714;2023-04-03T05:08:18;100201.88;;;7.06;61.69
7532;BME280;3807;49.030;8.714;2023-04-03T05:10:47;100194.38;;;6.85;62.06
7532;BME280;3807;49.030;8.714;2023-04-03T05:13:13;100201.97;;;6.91;62.08
7532;BME280;3807;49.030;8.714;2023-04-03T05:15:39;100201.97;;;6.85;61.59
7532;BME280;3807;49.030;8.714;2023-04-03T05:18:05;100206.19;;;6.90;61.01
7532;BME280;3807;49.030;8.714;2023-04-03T05:20:31;100201.91;;;6.97;61.76
7532;BME280;3807;49.030;8.714;2023-04-03T05:22:57;100206.91;;;7.14;61.29
7532;BME280;3807;49.030;8.714;2023-04-03T05:25:22;100200.19;;;7.07;60.89
7532;BME280;3807;49.030;8.714;2023-04-03T05:27:48;100208.69;;;6.92;60.98
7532;BME280;3807;49.030;8.714;2023-04-03T05:30:13;100209.53;;;6.89;60.42
7532;BME280;3807;49.030;8.714;2023-04-03T05:32:39;100217.09;;;7.02;61.02
7532;BME280;3807;49.030;8.714;2023-04-03T05:35:05;100222.94;;;7.16;61.00
7532;BME280;3807;49.030;8.714;2023-04-03T05:37:31;100223.81;;;7.10;59.78
7532;BME280;3807;49.030;8.714;2023-04-03T05:39:56;100217.91;;;7.08;60.45
7532;BME280;3807;49.030;8.714;2023-04-03T05:42:22;100219.50;;;7.22;61.00
7532;BME280;3807;49.030;8.714;2023-04-03T05:44:47;100222.91;;;7.18;60.69
7532;BME280;3807;49.030;8.714;2023-04-03T05:47:13;100223.03;;;6.98;61.06
7532;BME280;3807;49.030;8.714;2023-04-03T05:49:39;100230.69;;;6.76;60.32
7532;BME280;3807;49.030;8.714;2023-04-03T05:54:51;100218.78;;;7.06;60.83
7532;BME280;3807;49.030;8.714;2023-04-03T05:57:17;100223.00;;;7.01;59.45
7532;BME280;3807;49.030;8.714;2023-04-03T05:59:44;100222.16;;;7.00;60.32
7532;BME280;3807;49.030;8.714;2023-04-03T06:02:15;100229.88;;;6.68;60.15
7532;BME280;3807;49.030;8.714;2023-04-03T06:04:41;100234.03;;;6.92;59.95
7532;BME280;3807;49.030;8.714;2023-04-03T06:07:08;100234.00;;;7.01;60.47
7532;BME280;3807;49.030;8.714;2023-04-03T06:09:35;100234.88;;;6.89;61.40
7532;BME280;3807;49.030;8.714;2023-04-03T06:12:01;100241.69;;;6.74;61.52
7532;BME280;3807;49.030;8.714;2023-04-03T06:14:27;100234.16;;;6.37;61.56
7532;BME280;3807;49.030;8.714;2023-04-03T06:16:52;100239.19;;;6.63;61.54
7532;BME280;3807;49.030;8.714;2023-04-03T06:19:19;100234.88;;;6.91;61.30
7532;BME280;3807;49.030;8.714;2023-04-03T06:21:45;100225.47;;;7.14;60.58
7532;BME280;3807;49.030;8.714;2023-04-03T06:24:14;100235.66;;;7.01;60.46
7532;BME280;3807;49.030;8.714;2023-04-03T06:26:40;100228.22;;;6.64;61.15
7532;BME280;3807;49.030;8.714;2023-04-03T06:29:05;100234.13;;;6.61;60.50
7532;BME280;3807;49.030;8.714;2023-04-03T06:31:31;100241.66;;;6.80;61.46
7532;BME280;3807;49.030;8.714;2023-04-03T06:33:56;100234.88;;;6.89;60.06
7532;BME280;3807;49.030;8.714;2023-04-03T06:36:22;100246.75;;;6.61;60.94
7532;BME280;3807;49.030;8.714;2023-04-03T06:38:48;100246.00;;;6.35;60.79
7532;BME280;3807;49.030;8.714;2023-04-03T06:41:13;100242.59;;;6.42;62.31
7532;BME280;3807;49.030;8.714;2023-04-03T06:43:39;100240.03;;;6.60;61.41
7532;BME280;3807;49.030;8.714;2023-04-03T06:46:05;100244.25;;;6.63;61.51
7532;BME280;3807;49.030;8.714;2023-04-03T06:48:31;100242.56;;;6.56;62.53
7532;BME280;3807;49.030;8.714;2023-04-03T06:50:56;100239.16;;;6.67;61.85
7532;BME280;3807;49.030;8.714;2023-04-03T06:53:21;100239.16;;;6.69;61.20
7532;BME280;3807;49.030;8.714;2023-04-03T06:55:47;100244.25;;;6.57;62.37
7532;BME280;3807;49.030;8.714;2023-04-03T06:58:13;100241.72;;;6.44;62.39
7532;BME280;3807;49.030;8.714;2023-04-03T07:00:40;100238.34;;;6.53;62.80
7532;BME280;3807;49.030;8.714;2023-04-03T07:03:06;100238.38;;;6.49;61.92
7532;BME280;3807;49.030;8.714;2023-04-03T07:05:31;100245.91;;;6.62;61.75
7532;BME280;3807;49.030;8.714;2023-04-03T07:07:57;100245.09;;;6.63;62.42
7532;BME280;3807;49.030;8.714;2023-04-03T07:10:23;100251.88;;;6.17;63.68
7532;BME280;3807;49.030;8.714;2023-04-03T07:12:48;100250.16;;;6.54;62.36
7532;BME280;3807;49.030;8.714;2023-04-03T07:15:13;100245.91;;;6.72;62.31
7532;BME280;3807;49.030;8.714;2023-04-03T07:17:39;100255.25;;;6.24;63.12
7532;BME280;3807;49.030;8.714;2023-04-03T07:20:06;100267.03;;;6.54;62.43
7532;BME280;3807;49.030;8.714;2023-04-03T07:22:31;100262.00;;;6.43;62.44
7532;BME280;3807;49.030;8.714;2023-04-03T07:24:57;100260.34;;;6.17;63.01
7532;BME280;3807;49.030;8.714;2023-04-03T07:27:24;100266.22;;;6.19;63.70
7532;BME280;3807;49.030;8.714;2023-04-03T07:29:50;100272.91;;;6.71;62.71
7532;BME280;3807;49.030;8.714;2023-04-03T07:32:15;100271.25;;;6.53;63.04
7532;BME280;3807;49.030;8.714;2023-04-03T07:34:41;100276.31;;;6.13;64.14
7532;BME280;3807;49.030;8.714;2023-04-03T07:37:07;100277.19;;;6.09;63.80
7532;BME280;3807;49.030;8.714;2023-04-03T07:39:34;100280.53;;;6.34;63.73
7532;BME280;3807;49.030;8.714;2023-04-03T07:41:59;100272.13;;;6.32;63.13
7532;BME280;3807;49.030;8.714;2023-04-03T07:44:25;100283.91;;;6.16;63.79
7532;BME280;3807;49.030;8.714;2023-04-03T07:46:51;100288.13;;;6.54;63.14
7532;BME280;3807;49.030;8.714;2023-04-03T07:49:17;100285.63;;;6.33;63.53
7532;BME280;3807;49.030;8.714;2023-04-03T07:51:48;100287.22;;;6.81;62.62
7532;BME280;3807;49.030;8.714;2023-04-03T07:54:14;100283.88;;;6.67;62.85
7532;BME280;3807;49.030;8.714;2023-04-03T07:56:39;100283.88;;;6.65;62.88
7532;BME280;3807;49.030;8.714;2023-04-03T07:59:04;100290.66;;;6.63;63.03
7532;BME280;3807;49.030;8.714;2023-04-03T08:01:30;100294.84;;;6.71;62.58
7532;BME280;3807;49.030;8.714;2023-04-03T08:03:57;100293.16;;;6.62;62.89
7532;BME280;3807;49.030;8.714;2023-04-03T08:06:23;100293.19;;;6.63;62.21
7532;BME280;3807;49.030;8.714;2023-04-03T08:08:48;100286.44;;;6.53;63.14
7532;BME280;3807;49.030;8.714;2023-04-03T08:11:13;100299.06;;;6.65;63.05
7532;BME280;3807;49.030;8.714;2023-04-03T08:13:39;100291.50;;;6.42;62.68
7532;BME280;3807;49.030;8.714;2023-04-03T08:16:11;100292.38;;;6.15;63.99
7532;BME280;3807;49.030;8.714;2023-04-03T08:18:37;100304.16;;;6.30;63.56
7532;BME280;3807;49.030;8.714;2023-04-03T08:21:11;100298.25;;;6.34;63.29
7532;BME280;3807;49.030;8.714;2023-04-03T08:23:37;100303.31;;;6.39;63.19
7532;BME280;3807;49.030;8.714;2023-04-03T08:26:08;100304.13;;;6.67;62.70
7532;BME280;3807;49.030;8.714;2023-04-03T08:28:33;100293.16;;;6.62;62.91
7532;BME280;3807;49.030;8.714;2023-04-03T08:31:03;100288.09;;;6.71;62.48
7532;BME280;3807;49.030;8.714;2023-04-03T08:33:30;100290.66;;;6.57;62.55
7532;BME280;3807;49.030;8.714;2023-04-03T08:35:56;100307.53;;;6.46;62.90
7532;BME280;3807;49.030;8.714;2023-04-03T08:38:21;100301.56;;;6.84;62.53
7532;BME280;3807;49.030;8.714;2023-04-03T08:40:47;100299.06;;;6.68;62.41
7532;BME280;3807;49.030;8.714;2023-04-03T08:43:36;100294.81;;;6.83;62.01
7532;BME280;3807;49.030;8.714;2023-04-03T08:46:05;100303.19;;;7.08;61.75
7532;BME280;3807;49.030;8.714;2023-04-03T08:48:40;100300.66;;;7.05;61.80
7532;BME280;3807;49.030;8.714;2023-04-03T08:51:17;100296.41;;;7.19;61.61
7532;BME280;3807;49.030;8.714;2023-04-03T08:54:02;100299.78;;;7.13;61.31
7532;BME280;3807;49.030;8.714;2023-04-03T08:56:30;100304.03;;;7.08;60.94
7532;BME280;3807;49.030;8.714;2023-04-03T08:59:00;100302.38;;;6.93;61.58
7532;BME280;3807;49.030;8.714;2023-04-03T09:01:34;100300.63;;;7.11;61.48
7532;BME280;3807;49.030;8.714;2023-04-03T09:04:10;100309.06;;;7.14;61.38
7532;BME280;3807;49.030;8.714;2023-04-03T09:06:38;100311.53;;;7.34;61.21
7532;BME280;3807;49.030;8.714;2023-04-03T09:11:47;100308.16;;;7.28;60.88
7532;BME280;3807;49.030;8.714;2023-04-03T09:17:00;100305.72;;;7.12;61.67
7532;BME280;3807;49.030;8.714;2023-04-03T09:21:59;100304.81;;;7.29;59.88
7532;BME280;3807;49.030;8.714;2023-04-03T09:24:26;100314.94;;;7.18;60.39
7532;BME280;3807;49.030;8.714;2023-04-03T09:27:01;100313.28;;;7.20;60.09
7532;BME280;3807;49.030;8.714;2023-04-03T09:29:29;100303.94;;;7.33;60.83
7532;BME280;3807;49.030;8.714;2023-04-03T09:32:01;100298.00;;;7.35;60.08
7532;BME280;3807;49.030;8.714;2023-04-03T09:34:35;100299.66;;;7.41;59.06
7532;BME280;3807;49.030;8.714;2023-04-03T09:37:04;100304.63;;;7.59;59.91
7532;BME280;3807;49.030;8.714;2023-04-03T09:39:54;100295.34;;;7.58;59.78
7532;BME280;3807;49.030;8.714;2023-04-03T09:42:23;100298.84;;;7.37;59.45
7532;BME280;3807;49.030;8.714;2023-04-03T09:45:03;100301.06;;;7.91;58.64
7532;BME280;3807;49.030;8.714;2023-04-03T09:47:31;100301.13;;;7.85;58.79
7532;BME280;3807;49.030;8.714;2023-04-03T09:52:40;100291.91;;;7.72;58.95
7532;BME280;3807;49.030;8.714;2023-04-03T09:55:26;100304.38;;;8.01;58.17
7532;BME280;3807;49.030;8.714;2023-04-03T09:57:58;100288.41;;;7.86;57.99
7532;BME280;3807;49.030;8.714;2023-04-03T10:00:35;100291.00;;;7.82;56.77
7532;BME280;3807;49.030;8.714;2023-04-03T10:03:02;100292.62;;;7.87;57.59
7532;BME280;3807;49.030;8.714;2023-04-03T10:10:45;100290.72;;;8.16;56.64
7532;BME280;3807;49.030;8.714;2023-04-03T10:13:13;100294.16;;;8.08;55.56
7532;BME280;3807;49.030;8.714;2023-04-03T10:15:57;100294.94;;;8.18;57.34
7532;BME280;3807;49.030;8.714;2023-04-03T10:21:50;100289.91;;;8.12;54.44
7532;BME280;3807;49.030;8.714;2023-04-03T10:24:36;100288.00;;;8.43;54.99
7532;BME280;3807;49.030;8.714;2023-04-03T10:27:10;100279.59;;;8.38;55.70
7532;BME280;3807;49.030;8.714;2023-04-03T10:29:46;100282.06;;;8.46;54.85
7532;BME280;3807;49.030;8.714;2023-04-03T10:34:46;100285.47;;;8.40;54.19
7532;BME280;3807;49.030;8.714;2023-04-03T10:40:24;100281.94;;;8.59;52.89
7532;BME280;3807;49.030;8.714;2023-04-03T10:43:08;100287.03;;;8.56;55.24
7532;BME280;3807;49.030;8.714;2023-04-03T10:45:57;100282.69;;;8.69;54.03
7532;BME280;3807;49.030;8.714;2023-04-03T10:48:54;100285.16;;;8.74;53.20
7532;BME280;3807;49.030;8.714;2023-04-03T10:51:35;100290.47;;;8.51;54.99
7532;BME280;3807;49.030;8.714;2023-04-03T10:56:50;100288.41;;;8.87;53.08
7532;BME280;3807;49.030;8.714;2023-04-03T10:59:40;100290.28;;;8.68;52.81
7532;BME280;3807;49.030;8.714;2023-04-03T11:04:42;100290.94;;;8.88;54.41
7532;BME280;3807;49.030;8.714;2023-04-03T11:07:23;100291.47;;;9.18;53.52
7532;BME280;3807;49.030;8.714;2023-04-03T11:09:53;100290.63;;;9.16;54.11
7532;BME280;3807;49.030;8.714;2023-04-03T11:12:25;100285.06;;;8.83;52.96
7532;BME280;3807;49.030;8.714;2023-04-03T11:14:53;100288.34;;;8.94;53.79
7532;BME280;3807;49.030;8.714;2023-04-03T11:20:05;100288.25;;;9.03;53.75
7532;BME280;3807;49.030;8.714;2023-04-03T11:22:38;100289.31;;;8.82;54.55
7532;BME280;3807;49.030;8.714;2023-04-03T11:30:14;100287.63;;;8.78;54.80
7532;BME280;3807;49.030;8.714;2023-04-03T11:35:21;100276.50;;;8.93;54.46
7532;BME280;3807;49.030;8.714;2023-04-03T11:37:50;100275.06;;;9.40;54.21
7532;BME280;3807;49.030;8.714;2023-04-03T11:40:27;100276.16;;;9.21;54.27
7532;BME280;3807;49.030;8.714;2023-04-03T11:50:51;100278.31;;;9.50;54.46
7532;BME280;3807;49.030;8.714;2023-04-03T11:55:46;100265.69;;;9.45;52.42
7532;BME280;3807;49.030;8.714;2023-04-03T12:03:32;100255.41;;;9.51;53.85
7532;BME280;3807;49.030;8.714;2023-04-03T12:08:51;100252.50;;;9.77;53.47
7532;BME280;3807;49.030;8.714;2023-04-03T12:11:26;100250.25;;;9.58;53.57
7532;BME280;3807;49.030;8.714;2023-04-03T12:26:47;100243.78;;;9.35;52.03
7532;BME280;3807;49.030;8.714;2023-04-03T12:34:54;100247.97;;;9.38;51.42
7532;BME280;3807;49.030;8.714;2023-04-03T12:37:24;100239.63;;;9.29;52.96
7532;BME280;3807;49.030;8.714;2023-04-03T12:40:19;100238.91;;;9.78;54.14
7532;BME280;3807;49.030;8.714;2023-04-03T12:45:52;100242.19;;;9.26;52.52
7532;BME280;3807;49.030;8.714;2023-04-03T12:48:25;100238.75;;;9.32;53.17
7532;BME280;3807;49.030;8.714;2023-04-03T12:50:51;100241.56;;;9.71;53.54
7532;BME280;3807;49.030;8.714;2023-04-03T12:53:21;100234.81;;;9.70;52.84
7532;BME280;3807;49.030;8.714;2023-04-03T12:55:48;100239.66;;;9.85;54.21
7532;BME280;3807;49.030;8.714;2023-04-03T12:58:26;100232.75;;;9.92;51.10
7532;BME280;3807;49.030;8.714;2023-04-03T13:01:12;100227.50;;;10.02;51.36
7532;BME280;3807;49.030;8.714;2023-04-03T13:03:40;100223.34;;;9.98;50.96
7532;BME280;3807;49.030;8.714;2023-04-03T13:06:17;100223.84;;;10.17;51.89
7532;BME280;3807;49.030;8.714;2023-04-03T13:08:50;100219.44;;;9.76;49.38
7532;BME280;3807;49.030;8.714;2023-04-03T13:11:16;100213.63;;;9.68;49.44
7532;BME280;3807;49.030;8.714;2023-04-03T13:14:03;100232.16;;;9.76;52.97
7532;BME280;3807;49.030;8.714;2023-04-03T13:16:31;100224.28;;;9.91;52.53
7532;BME280;3807;49.030;8.714;2023-04-03T13:18:57;100225.56;;;10.17;52.38
7532;BME280;3807;49.030;8.714;2023-04-03T13:21:28;100223.06;;;10.15;51.47
7532;BME280;3807;49.030;8.714;2023-04-03T13:23:58;100214.59;;;10.13;50.31
7532;BME280;3807;49.030;8.714;2023-04-03T13:26:30;100223.00;;;10.17;50.61
7532;BME280;3807;49.030;8.714;2023-04-03T13:29:03;100219.13;;;9.96;51.38
7532;BME280;3807;49.030;8.714;2023-04-03T13:31:37;100218.03;;;10.11;49.00
7532;BME280;3807;49.030;8.714;2023-04-03T13:34:12;100218.66;;;10.23;50.17
7532;BME280;3807;49.030;8.714;2023-04-03T13:36:42;100216.44;;;10.03;47.19
7532;BME280;3807;49.030;8.714;2023-04-03T13:41:46;100218.75;;;10.19;50.66
7532;BME280;3807;49.030;8.714;2023-04-03T13:44:35;100214.91;;;10.44;51.54
7532;BME280;3807;49.030;8.714;2023-04-03T13:47:16;100216.16;;;10.22;50.84
7532;BME280;3807;49.030;8.714;2023-04-03T13:50:03;100211.88;;;9.73;49.10
7532;BME280;3807;49.030;8.714;2023-04-03T13:52:41;100215.97;;;9.82;50.57
7532;BME280;3807;49.030;8.714;2023-04-03T13:55:17;100211.16;;;10.14;49.35
7532;BME280;3807;49.030;8.714;2023-04-03T13:58:00;100213.50;;;10.28;50.50
7532;BME280;3807;49.030;8.714;2023-04-03T14:00:53;100213.25;;;10.43;49.57
7532;BME280;3807;49.030;8.714;2023-04-03T14:03:29;100209.00;;;10.42;50.64
7532;BME280;3807;49.030;8.714;2023-04-03T14:05:55;100207.13;;;10.02;49.51
7532;BME280;3807;49.030;8.714;2023-04-03T14:08:20;100205.12;;;10.20;50.43
7532;BME280;3807;49.030;8.714;2023-04-03T14:10:46;100201.34;;;9.94;51.12
7532;BME280;3807;49.030;8.714;2023-04-03T14:13:17;100209.53;;;10.12;52.17
7532;BME280;3807;49.030;8.714;2023-04-03T14:15:44;100207.88;;;10.09;51.50
7532;BME280;3807;49.030;8.714;2023-04-03T14:18:15;100212.09;;;10.10;51.99
7532;BME280;3807;49.030;8.714;2023-04-03T14:20:41;100205.88;;;10.28;50.96
7532;BME280;3807;49.030;8.714;2023-04-03T14:23:07;100206.06;;;10.16;48.04
7532;BME280;3807;49.030;8.714;2023-04-03T14:25:32;100202.63;;;10.18;51.08
7532;BME280;3807;49.030;8.714;2023-04-03T14:27:58;100195.28;;;10.51;51.10
7532;BME280;3807;49.030;8.714;2023-04-03T14:30:31;100197.59;;;10.15;48.40
7532;BME280;3807;49.030;8.714;2023-04-03T14:32:57;100197.47;;;10.23;49.91
7532;BME280;3807;49.030;8.714;2023-04-03T14:35:24;100194.53;;;10.44;49.94
7532;BME280;3807;49.030;8.714;2023-04-03T14:37:51;100193.03;;;10.36;50.39
7532;BME280;3807;49.030;8.714;2023-04-03T14:40:27;100187.88;;;10.37;49.40
7532;BME280;3807;49.030;8.714;2023-04-03T14:42:53;100186.94;;;10.43;47.78
7532;BME280;3807;49.030;8.714;2023-04-03T14:45:21;100187.94;;;10.34;47.75
7532;BME280;3807;49.030;8.714;2023-04-03T14:47:49;100192.69;;;10.03;48.11
7532;BME280;3807;49.030;8.714;2023-04-03T14:50:18;100183.09;;;10.19;49.60
7532;BME280;3807;49.030;8.714;2023-04-03T14:52:46;100188.25;;;10.14;48.38
7532;BME280;3807;49.030;8.714;2023-04-03T14:55:15;100188.06;;;10.25;49.36
7532;BME280;3807;49.030;8.714;2023-04-03T14:57:41;100192.56;;;10.59;50.11